createdAt,value
2023-04-28T03:46:54.964Z,95.80
2023-04-28T03:49:21.868Z,95.80
2023-04-28T03:51:50.059Z,95.80
2023-04-28T03:54:17.478Z,96.10
2023-04-28T03:56:44.575Z,96.10
2023-04-28T03:59:12.202Z,96.20
2023-04-28T04:01:39.152Z,96.10
2023-04-28T04:04:07.420Z,96.00
2023-04-28T04:06:34.759Z,96.10
2023-04-28T04:09:01.756Z,96.10
2023-04-28T04:11:28.623Z,96.20
2023-04-28T04:13:55.534Z,96.20
2023-04-28T04:16:23.015Z,96.20
2023-04-28T04:18:50.056Z,96.20
2023-04-28T04:21:16.988Z,96.30
2023-04-28T04:23:43.871Z,96.30
2023-04-28T04:26:10.891Z,96.30
2023-04-28T04:28:37.838Z,96.20
2023-04-28T04:31:04.866Z,96.10
2023-04-28T04:33:31.799Z,96.20
2023-04-28T04:35:58.874Z,96.20
2023-04-28T04:38:25.959Z,96.40
2023-04-28T04:40:53.183Z,96.50
2023-04-28T04:43:20.833Z,96.50
2023-04-28T04:45:47.864Z,96.40
2023-04-28T04:48:14.856Z,96.50
2023-04-28T04:50:42.560Z,96.60
2023-04-28T04:53:13.890Z,96.70
2023-04-28T04:55:42.516Z,96.60
2023-04-28T04:58:09.582Z,96.60
2023-04-28T05:00:37.560Z,96.60
2023-04-28T05:03:06.328Z,96.70
2023-04-28T05:05:34.686Z,96.80
2023-04-28T05:08:02.391Z,96.70
2023-04-28T05:10:29.369Z,96.80
2023-04-28T05:12:56.270Z,96.80
2023-04-28T05:15:23.211Z,96.90
2023-04-28T05:17:50.266Z,96.90
2023-04-28T05:20:17.309Z,97.10
2023-04-28T05:22:44.256Z,97.00
2023-04-28T05:25:11.164Z,97.20
2023-04-28T05:27:39.554Z,97.20
2023-04-28T05:30:07.513Z,97.00
2023-04-28T05:32:34.990Z,97.10
2023-04-28T05:35:02.429Z,97.20
2023-04-28T05:37:29.436Z,97.30
2023-04-28T05:39:56.464Z,97.20
2023-04-28T05:42:23.486Z,97.40
2023-04-28T05:44:50.459Z,97.30
2023-04-28T05:47:17.381Z,97.40
2023-04-28T05:49:44.258Z,97.60
2023-04-28T05:52:11.261Z,97.60
2023-04-28T05:54:38.152Z,97.70
2023-04-28T05:57:05.178Z,97.60
2023-04-28T05:59:32.277Z,97.70
2023-04-28T06:01:59.315Z,97.50
2023-04-28T06:04:26.839Z,97.60
2023-04-28T06:06:53.933Z,97.70
2023-04-28T06:09:20.959Z,97.90
2023-04-28T06:11:47.856Z,97.70
2023-04-28T06:14:15.010Z,97.90
2023-04-28T06:16:42.097Z,97.90
2023-04-28T06:19:09.619Z,98.00
2023-04-28T06:21:37.029Z,98.00
2023-04-28T06:24:03.979Z,98.10
2023-04-28T06:26:30.990Z,98.00
2023-04-28T06:28:57.960Z,98.30
2023-04-28T06:31:24.896Z,98.50
2023-04-28T06:33:51.865Z,98.60
2023-04-28T06:36:18.810Z,98.50
2023-04-28T06:38:45.815Z,98.50
2023-04-28T06:41:12.898Z,98.50
2023-04-28T06:43:39.886Z,98.40
2023-04-28T06:46:06.963Z,98.70
2023-04-28T06:48:33.948Z,98.90
2023-04-28T06:51:00.969Z,98.90
2023-04-28T06:53:28.020Z,99.10
2023-04-28T06:55:54.966Z,99.30
2023-04-28T06:58:22.150Z,99.20
2023-04-28T07:00:49.123Z,99.30
2023-04-28T07:03:16.335Z,99.60
2023-04-28T07:05:43.404Z,99.50
2023-04-28T07:08:10.425Z,99.60
2023-04-28T07:10:37.311Z,99.70
2023-04-28T07:13:04.349Z,99.70
2023-04-28T07:15:31.498Z,99.80
2023-04-28T07:17:58.485Z,99.80
2023-04-28T07:20:25.494Z,99.70
2023-04-28T07:22:52.409Z,99.80
2023-04-28T07:25:19.320Z,99.90
2023-04-28T07:27:46.822Z,99.90
2023-04-28T07:30:26.559Z,99.90
2023-04-28T07:32:55.383Z,99.90
2023-04-28T07:35:22.735Z,99.90
2023-04-28T07:37:49.657Z,99.90
2023-04-28T07:40:16.860Z,99.90
2023-04-28T07:42:43.851Z,99.90
2023-04-28T07:45:10.886Z,99.80
2023-04-28T07:47:38.080Z,99.90
2023-04-28T07:50:06.510Z,99.90
2023-04-28T07:52:33.552Z,99.90
2023-04-28T07:55:00.747Z,99.90
2023-04-28T07:57:29.140Z,99.90
2023-04-28T07:59:56.248Z,99.90
2023-04-28T08:02:23.314Z,99.90
2023-04-28T08:04:50.633Z,99.90
2023-04-28T08:07:17.912Z,99.90
2023-04-28T08:09:47.370Z,99.90
2023-04-28T08:12:14.940Z,99.90
2023-04-28T08:14:41.893Z,99.90
2023-04-28T08:17:09.312Z,99.90
2023-04-28T08:19:36.556Z,99.90
2023-04-28T08:22:07.248Z,99.90
2023-04-28T08:24:34.415Z,99.90
2023-04-28T08:27:03.652Z,99.90
2023-04-28T08:29:31.680Z,99.90
2023-04-28T08:31:58.613Z,99.90
2023-04-28T08:34:25.585Z,99.90
2023-04-28T08:36:53.173Z,99.90
2023-04-28T08:39:22.852Z,99.90
2023-04-28T08:41:50.630Z,99.90
2023-04-28T08:44:18.316Z,99.90
2023-04-28T08:46:47.130Z,99.90
2023-04-28T08:49:15.793Z,99.90
2023-04-28T08:52:00.862Z,99.90
2023-04-28T08:54:30.432Z,99.90
2023-04-28T08:56:58.041Z,99.90
2023-04-28T08:59:25.338Z,99.90
2023-04-28T09:01:52.349Z,99.90
2023-04-28T09:04:20.537Z,99.90
2023-04-28T09:06:48.061Z,99.90
2023-04-28T09:09:18.076Z,99.90
2023-04-28T09:11:55.617Z,99.90
2023-04-28T09:14:23.486Z,99.90
2023-04-28T09:16:51.760Z,99.90
2023-04-28T09:19:19.192Z,99.90
2023-04-28T09:21:49.584Z,99.90
2023-04-28T09:24:46.990Z,99.90
2023-04-28T09:27:15.439Z,99.90
2023-04-28T09:29:54.519Z,99.90
2023-04-28T09:32:22.724Z,99.90
2023-04-28T09:34:51.250Z,99.90
2023-04-28T09:37:19.919Z,99.90
2023-04-28T09:39:49.435Z,99.90
2023-04-28T09:42:35.671Z,99.90
2023-04-28T09:45:04.112Z,99.90
2023-04-28T09:47:35.199Z,99.90
2023-04-28T09:50:03.564Z,99.90
2023-04-28T09:52:30.740Z,99.90
2023-04-28T09:54:58.318Z,99.90
2023-04-28T09:57:25.294Z,99.90
2023-04-28T09:59:52.832Z,99.90
2023-04-28T10:02:42.103Z,99.90
2023-04-28T10:05:09.692Z,99.90
2023-04-28T10:07:37.505Z,99.90
2023-04-28T10:10:05.429Z,99.90
2023-04-28T10:12:32.634Z,99.90
2023-04-28T10:14:59.932Z,99.90
2023-04-28T10:17:29.429Z,99.90
2023-04-28T10:19:57.701Z,99.90
2023-04-28T10:22:32.495Z,99.90
2023-04-28T10:25:08.640Z,99.90
2023-04-28T10:27:36.071Z,99.90
2023-04-28T10:32:46.189Z,99.90
2023-04-28T10:35:25.432Z,99.90
2023-04-28T10:38:08.322Z,99.90
2023-04-28T10:40:36.137Z,99.90
2023-04-28T10:43:03.430Z,99.90
2023-04-28T10:45:49.074Z,99.90
2023-04-28T10:48:16.423Z,99.90
2023-04-28T10:51:07.270Z,99.90
2023-04-28T10:53:47.488Z,99.90
2023-04-28T10:56:19.170Z,99.90
2023-04-28T10:58:46.917Z,99.90
2023-04-28T11:01:26.035Z,99.90
2023-04-28T11:04:00.659Z,99.90
2023-04-28T11:06:35.770Z,99.90
2023-04-28T11:09:14.960Z,99.90
2023-04-28T11:12:00.291Z,99.90
2023-04-28T11:14:30.096Z,99.90
2023-04-28T11:17:01.386Z,99.90
2023-04-28T11:19:29.431Z,99.90
2023-04-28T11:21:57.597Z,99.90
2023-04-28T11:24:28.948Z,99.90
2023-04-28T11:26:56.414Z,99.90
2023-04-28T11:29:36.577Z,99.90
2023-04-28T11:32:07.543Z,99.90
2023-04-28T11:34:35.420Z,99.90
2023-04-28T11:37:03.075Z,99.90
2023-04-28T11:39:30.896Z,99.90
2023-04-28T11:41:58.551Z,99.90
2023-04-28T11:44:27.072Z,99.90
2023-04-28T11:47:00.435Z,99.90
2023-04-28T11:49:30.988Z,99.90
2023-04-28T11:52:00.047Z,99.90
2023-04-28T11:54:28.269Z,99.90
2023-04-28T11:56:56.565Z,99.90
2023-04-28T11:59:30.986Z,99.90
2023-04-28T12:01:59.305Z,99.90
2023-04-28T12:04:44.662Z,99.90
2023-04-28T12:07:15.490Z,99.90
2023-04-28T12:09:43.902Z,99.90
2023-04-28T12:12:12.333Z,99.90
2023-04-28T12:14:54.500Z,99.90
2023-04-28T12:17:33.375Z,99.90
2023-04-28T12:20:07.797Z,99.90
2023-04-28T12:22:50.717Z,99.90
2023-04-28T12:25:19.201Z,99.90
2023-04-28T12:27:58.957Z,99.90
2023-04-28T12:30:29.150Z,99.90
2023-04-28T12:32:56.515Z,99.90
2023-04-28T12:35:24.741Z,99.90
2023-04-28T12:37:52.874Z,99.90
2023-04-28T12:40:19.977Z,99.90
2023-04-28T12:42:46.943Z,99.90
2023-04-28T12:45:14.313Z,99.90
2023-04-28T12:47:42.176Z,99.90
2023-04-28T12:50:09.917Z,99.90
2023-04-28T12:52:37.504Z,99.90
2023-04-28T12:55:04.910Z,99.90
2023-04-28T12:57:31.955Z,99.90
2023-04-28T12:59:58.868Z,99.90
2023-04-28T13:02:25.983Z,99.90
2023-04-28T13:04:53.459Z,99.90
2023-04-28T13:07:20.733Z,99.90
2023-04-28T13:09:48.267Z,99.90
2023-04-28T13:12:15.581Z,99.90
2023-04-28T13:14:42.566Z,99.90
2023-04-28T13:17:10.387Z,99.90
2023-04-28T13:19:37.830Z,99.90
2023-04-28T13:22:06.624Z,99.90
2023-04-28T13:24:33.698Z,99.90
2023-04-28T13:27:00.727Z,99.90
2023-04-28T13:29:27.700Z,99.90
2023-04-28T13:31:54.654Z,99.90
2023-04-28T13:34:21.725Z,99.90
2023-04-28T13:36:50.917Z,99.90
2023-04-28T13:39:20.095Z,99.90
2023-04-28T13:41:47.203Z,99.90
2023-04-28T13:44:14.150Z,99.90
2023-04-28T13:46:41.495Z,99.90
2023-04-28T13:49:11.742Z,99.90
2023-04-28T13:51:39.047Z,99.90
2023-04-28T13:54:08.751Z,99.90
2023-04-28T13:56:36.495Z,99.90
2023-04-28T13:59:03.873Z,99.90
2023-04-28T14:01:31.013Z,99.90
2023-04-28T14:03:58.355Z,99.90
2023-04-28T14:06:27.258Z,99.90
2023-04-28T14:08:54.600Z,99.90
2023-04-28T14:11:22.490Z,99.90
2023-04-28T14:13:49.451Z,99.90
2023-04-28T14:16:16.423Z,99.90
2023-04-28T14:18:43.404Z,99.90
2023-04-28T14:21:10.618Z,99.90
2023-04-28T14:23:38.374Z,99.90
2023-04-28T14:26:05.448Z,99.90
2023-04-28T14:28:32.934Z,99.90
2023-04-28T14:31:03.392Z,99.90
2023-04-28T14:33:30.374Z,99.90
2023-04-28T14:35:57.310Z,99.90
2023-04-28T14:38:24.300Z,99.90
2023-04-28T14:40:51.545Z,99.90
2023-04-28T14:43:18.508Z,99.90
2023-04-28T14:45:45.500Z,99.90
2023-04-28T14:48:13.245Z,99.90
2023-04-28T14:50:40.929Z,99.90
2023-04-28T14:53:08.238Z,99.90
2023-04-28T14:55:35.346Z,99.90
2023-04-28T14:58:02.900Z,99.90
2023-04-28T15:00:30.737Z,99.90
2023-04-28T15:02:57.945Z,99.90
2023-04-28T15:05:25.019Z,99.90
2023-04-28T15:07:52.358Z,99.90
2023-04-28T15:10:19.298Z,99.90
2023-04-28T15:12:47.189Z,99.90
2023-04-28T15:15:14.394Z,99.90
2023-04-28T15:17:41.467Z,99.90
2023-04-28T15:20:08.985Z,99.90
2023-04-28T15:22:36.952Z,99.90
2023-04-28T15:25:04.070Z,99.90
2023-04-28T15:27:31.004Z,99.90
2023-04-28T15:29:58.133Z,99.90
2023-04-28T15:32:25.234Z,99.90
2023-04-28T15:34:52.849Z,99.90
2023-04-28T15:37:39.242Z,99.90
2023-04-28T15:40:06.642Z,99.90
2023-04-28T15:42:34.034Z,99.90
2023-04-28T15:45:02.475Z,99.90
2023-04-28T15:47:31.042Z,99.90
2023-04-28T15:50:01.258Z,99.90
2023-04-28T15:52:28.249Z,99.90
2023-04-28T15:54:55.900Z,99.90
2023-04-28T15:57:22.833Z,99.90
2023-04-28T15:59:51.613Z,99.90
2023-04-28T16:02:18.794Z,99.90
2023-04-28T16:04:46.745Z,99.90
2023-04-28T16:07:14.050Z,99.90
2023-04-28T16:09:41.011Z,99.90
2023-04-28T16:12:08.565Z,99.90
2023-04-28T16:14:36.332Z,99.90
2023-04-28T16:17:03.548Z,99.90
2023-04-28T16:19:30.597Z,99.90
2023-04-28T16:21:58.264Z,99.90
2023-04-28T16:24:25.838Z,99.90
2023-04-28T16:26:53.257Z,99.90
2023-04-28T16:29:20.286Z,99.90
2023-04-28T16:31:47.188Z,99.90
2023-04-28T16:34:14.146Z,99.90
2023-04-28T16:36:41.522Z,99.90
2023-04-28T16:39:09.443Z,99.90
2023-04-28T16:41:37.318Z,99.90
2023-04-28T16:44:04.228Z,99.90
2023-04-28T16:46:31.364Z,99.90
2023-04-28T16:48:58.570Z,99.90
2023-04-28T16:51:25.586Z,99.90
2023-04-28T16:53:52.768Z,99.90
2023-04-28T16:56:19.685Z,99.90
2023-04-28T16:58:46.566Z,99.90
2023-04-28T17:01:13.528Z,99.90
2023-04-28T17:03:43.462Z,99.90
2023-04-28T17:06:11.184Z,99.90
2023-04-28T17:08:39.252Z,99.90
2023-04-28T17:11:07.391Z,99.90
2023-04-28T17:13:35.236Z,99.90
2023-04-28T17:16:02.399Z,99.90
2023-04-28T17:18:29.419Z,99.90
2023-04-28T17:20:56.573Z,99.90
2023-04-28T17:23:23.465Z,99.90
2023-04-28T17:25:50.360Z,99.90
2023-04-28T17:28:17.318Z,99.90
2023-04-28T17:30:47.346Z,99.90
2023-04-28T17:33:16.043Z,99.90
2023-04-28T17:35:42.948Z,99.90
2023-04-28T17:38:09.898Z,99.90
2023-04-28T17:40:37.135Z,99.90
2023-04-28T17:43:04.219Z,99.90
2023-04-28T17:45:31.607Z,99.90
2023-04-28T17:48:00.567Z,99.90
2023-04-28T17:50:27.833Z,99.90
2023-04-28T17:52:54.920Z,99.90
2023-04-28T17:55:22.288Z,99.90
2023-04-28T17:57:51.573Z,99.90
2023-04-28T18:00:18.565Z,99.90
2023-04-28T18:02:45.617Z,99.90
2023-04-28T18:05:12.635Z,99.90
2023-04-28T18:07:39.542Z,99.90
2023-04-28T18:10:06.653Z,99.90
2023-04-28T18:12:33.806Z,99.90
2023-04-28T18:15:01.309Z,99.90
2023-04-28T18:17:28.226Z,99.90
2023-04-28T18:19:56.972Z,99.90
2023-04-28T18:22:24.128Z,99.90
2023-04-28T18:24:51.340Z,99.90
2023-04-28T18:27:18.655Z,99.90
2023-04-28T18:29:45.761Z,99.90
2023-04-28T18:32:14.506Z,99.90
2023-04-28T18:34:43.307Z,99.90
2023-04-28T18:37:10.592Z,99.90
2023-04-28T18:39:37.494Z,99.90
2023-04-28T18:42:04.657Z,99.90
2023-04-28T18:44:31.756Z,99.90
2023-04-28T18:46:59.819Z,99.90
2023-04-28T18:49:26.923Z,99.90
2023-04-28T18:51:53.965Z,99.90
2023-04-28T18:54:20.872Z,99.90
2023-04-28T18:56:52.411Z,99.90
2023-04-28T18:59:19.356Z,99.90
2023-04-28T19:01:47.013Z,99.90
2023-04-28T19:04:14.581Z,99.90
2023-04-28T19:06:43.897Z,99.90
2023-04-28T19:09:10.826Z,99.90
2023-04-28T19:11:37.753Z,99.90
2023-04-28T19:14:05.248Z,99.90
2023-04-28T19:16:32.322Z,99.90
2023-04-28T19:18:59.330Z,99.90
2023-04-28T19:21:26.829Z,99.90
2023-04-28T19:23:53.858Z,99.90
2023-04-28T19:26:20.844Z,99.90
2023-04-28T19:28:47.859Z,99.90
2023-04-28T19:31:15.485Z,99.90
2023-04-28T19:33:42.469Z,99.90
2023-04-28T19:36:09.922Z,99.90
2023-04-28T19:38:37.188Z,99.90
2023-04-28T19:41:04.169Z,99.90
2023-04-28T19:43:31.912Z,99.90
2023-04-28T19:45:58.943Z,99.90
2023-04-28T19:48:26.521Z,99.90
2023-04-28T19:50:54.158Z,99.90
2023-04-28T19:53:21.093Z,99.90
2023-04-28T19:55:48.056Z,99.90
2023-04-28T19:58:16.060Z,99.90
2023-04-28T20:00:43.121Z,99.90
2023-04-28T20:03:10.232Z,99.90
2023-04-28T20:05:37.892Z,99.90
2023-04-28T20:08:04.933Z,99.90
2023-04-28T20:10:31.872Z,99.90
2023-04-28T20:12:59.003Z,99.90
2023-04-28T20:15:26.220Z,99.90
2023-04-28T20:17:53.450Z,99.90
2023-04-28T20:20:20.518Z,99.90
2023-04-28T20:22:50.508Z,99.90
2023-04-28T20:25:17.631Z,99.90
2023-04-28T20:27:46.796Z,99.90
2023-04-28T20:30:14.398Z,99.90
2023-04-28T20:32:41.426Z,99.90
2023-04-28T20:35:08.552Z,99.90
2023-04-28T20:37:35.456Z,99.90
2023-04-28T20:40:03.070Z,99.90
2023-04-28T20:42:29.986Z,99.90
2023-04-28T20:44:57.236Z,99.90
2023-04-28T20:47:24.687Z,99.90
2023-04-28T20:49:51.825Z,99.90
2023-04-28T20:52:18.888Z,99.90
2023-04-28T20:54:46.857Z,99.90
2023-04-28T20:57:13.852Z,99.90
2023-04-28T20:59:40.818Z,99.90
2023-04-28T21:02:08.981Z,99.90
2023-04-28T21:04:36.024Z,99.90
2023-04-28T21:07:02.935Z,99.90
2023-04-28T21:09:29.884Z,99.90
2023-04-28T21:11:56.840Z,99.90
2023-04-28T21:14:24.182Z,99.90
2023-04-28T21:16:51.196Z,99.90
2023-04-28T21:19:18.427Z,99.90
2023-04-28T21:21:45.429Z,99.90
2023-04-28T21:24:12.581Z,99.90
2023-04-28T21:26:39.762Z,99.90
2023-04-28T21:29:09.186Z,99.90
2023-04-28T21:31:36.228Z,99.90
2023-04-28T21:34:03.449Z,99.90
2023-04-28T21:36:30.949Z,99.90
2023-04-28T21:38:57.997Z,99.90
2023-04-28T21:41:25.446Z,99.90
2023-04-28T21:43:52.383Z,99.90
2023-04-28T21:46:19.340Z,99.90
2023-04-28T21:48:46.481Z,99.90
2023-04-28T21:51:14.367Z,99.90
2023-04-28T21:53:41.336Z,99.90
2023-04-28T21:56:08.299Z,99.90
2023-04-28T21:58:35.800Z,99.90
2023-04-28T22:01:03.685Z,99.90
2023-04-28T22:03:31.356Z,99.90
2023-04-28T22:05:58.860Z,99.90
2023-04-28T22:08:25.753Z,99.90
2023-04-28T22:10:52.682Z,99.90
2023-04-28T22:13:19.581Z,99.90
2023-04-28T22:15:46.500Z,99.90
2023-04-28T22:18:13.858Z,99.90
2023-04-28T22:20:41.020Z,99.90
2023-04-28T22:23:08.081Z,99.90
2023-04-28T22:25:35.014Z,99.90
2023-04-28T22:28:01.919Z,99.90
2023-04-28T22:30:30.775Z,99.90
2023-04-28T22:32:57.840Z,99.90
2023-04-28T22:35:24.831Z,99.90
2023-04-28T22:37:51.762Z,99.90
2023-04-28T22:40:18.687Z,99.90
2023-04-28T22:42:46.366Z,99.90
2023-04-28T22:45:13.331Z,99.90
2023-04-28T22:47:40.850Z,99.90
2023-04-28T22:50:08.919Z,99.90
2023-04-28T22:52:36.304Z,99.90
2023-04-28T22:55:03.434Z,99.90
2023-04-28T22:57:30.399Z,99.90
2023-04-28T22:59:57.345Z,99.90
2023-04-28T23:02:25.193Z,99.90
2023-04-28T23:04:52.515Z,99.90
2023-04-28T23:07:19.592Z,99.90
2023-04-28T23:09:46.607Z,99.90
2023-04-28T23:12:13.524Z,99.90
2023-04-28T23:14:40.472Z,99.90
2023-04-28T23:17:07.585Z,99.90
2023-04-28T23:19:47.744Z,99.90
2023-04-28T23:22:14.740Z,99.90
2023-04-28T23:24:42.368Z,99.90
2023-04-28T23:27:09.350Z,99.90
2023-04-28T23:29:36.437Z,99.90
